Time;durP1;ratioP1;P1;durP2;ratioP2;P2;SDS_P1;SDS_P2;PMS_P1;PMS_P2;Temp;Humidity;BMP_temperature;BMP_pressure;BME280_temperature;BME280_humidity;BME280_pressure;Samples;Min_cycle;Max_cycle;Signal;HPM_P1;HPM_P2
2023/01/23 00:01:11;;;;;;;39.15;22.02;;;;;;;-2.74;100.00;102829.59;5093229;28;20044;-64
2023/01/23 00:03:38;;;;;;;40.50;23.13;;;;;;;-2.76;100.00;102820.84;5092942;28;20119;-64
2023/01/23 00:06:11;;;;;;;48.50;24.35;;;;;;;-2.75;100.00;102822.59;5092650;28;20475;-64
2023/01/23 00:08:39;;;;;;;41.20;22.05;;;;;;;-2.77;100.00;102827.88;5095227;28;20488;-63
2023/01/23 00:11:07;;;;;;;47.67;23.98;;;;;;;-2.81;100.00;102823.56;5095414;28;20048;-65
2023/01/23 00:13:34;;;;;;;43.53;23.05;;;;;;;-2.82;100.00;102830.56;5095308;28;20040;-63
2023/01/23 00:16:12;;;;;;;43.95;23.35;;;;;;;-2.75;100.00;102825.22;5094664;28;20410;-63
2023/01/23 00:18:39;;;;;;;42.58;22.25;;;;;;;-2.74;100.00;102821.72;5095302;28;20111;-63
2023/01/23 00:21:08;;;;;;;39.90;23.10;;;;;;;-2.72;100.00;102830.41;5095089;28;20048;-64
2023/01/23 00:23:34;;;;;;;45.03;22.50;;;;;;;-2.67;100.00;102825.97;5093366;28;20048;-63
2023/01/23 00:26:10;;;;;;;42.47;24.00;;;;;;;-2.65;100.00;102829.44;5093731;28;20044;-64
2023/01/23 00:28:37;;;;;;;46.45;24.00;;;;;;;-2.72;100.00;102830.41;5093961;28;20411;-63
2023/01/23 00:31:05;;;;;;;39.25;22.30;;;;;;;-2.68;100.00;102835.63;5084784;28;20488;-65
2023/01/23 00:33:32;;;;;;;41.70;22.77;;;;;;;-2.69;100.00;102830.38;5095039;28;20044;-64
2023/01/23 00:35:59;;;;;;;44.25;23.80;;;;;;;-2.71;100.00;102830.41;5094352;28;20047;-64
2023/01/23 00:38:26;;;;;;;46.47;23.73;;;;;;;-2.63;100.00;102832.91;5094848;28;20036;-64
2023/01/23 00:40:55;;;;;;;40.92;22.77;;;;;;;-2.71;100.00;102833.03;5094337;28;20123;-63
2023/01/23 00:43:23;;;;;;;40.00;22.15;;;;;;;-2.70;100.00;102826.03;5094182;28;20050;-64
2023/01/23 00:45:50;;;;;;;44.38;23.77;;;;;;;-2.72;100.00;102823.44;5093317;28;20044;-64
2023/01/23 00:48:16;;;;;;;43.53;23.50;;;;;;;-2.70;100.00;102826.88;5093609;28;20118;-64
2023/01/23 00:50:43;;;;;;;44.97;23.30;;;;;;;-2.66;100.00;102835.59;5093866;28;20068;-64
2023/01/23 00:53:11;;;;;;;44.45;24.40;;;;;;;-2.67;100.00;102833.88;5093865;28;20127;-64
2023/01/23 00:55:39;;;;;;;43.35;23.48;;;;;;;-2.63;100.00;102839.03;5093154;28;20123;-64
2023/01/23 00:58:06;;;;;;;47.78;23.75;;;;;;;-2.74;100.00;102835.72;5093639;28;20039;-64
2023/01/23 01:00:32;;;;;;;44.85;23.55;;;;;;;-2.65;100.00;102840.84;5076422;28;20039;-64
2023/01/23 01:02:59;;;;;;;42.97;22.75;;;;;;;-2.57;100.00;102840.72;5093599;28;20058;-64
2023/01/23 01:05:26;;;;;;;48.92;24.63;;;;;;;-2.65;100.00;102850.47;5094062;28;20032;-64
2023/01/23 01:07:52;;;;;;;43.22;23.02;;;;;;;-2.63;100.00;102853.94;5094562;28;20050;-64
2023/01/23 01:10:19;;;;;;;42.22;23.08;;;;;;;-2.70;100.00;102868.06;5092380;28;20040;-64
2023/01/23 01:12:46;;;;;;;45.22;23.15;;;;;;;-2.67;100.00;102857.50;5092553;28;20063;-64
2023/01/23 01:15:13;;;;;;;44.55;24.42;;;;;;;-2.70;100.00;102866.31;5092584;28;20048;-63
2023/01/23 01:17:39;;;;;;;44.72;24.17;;;;;;;-2.73;100.00;102868.09;5094037;28;20050;-64
2023/01/23 01:20:07;;;;;;;43.40;22.15;;;;;;;-2.70;100.00;102870.69;5092702;28;20048;-64
2023/01/23 01:22:34;;;;;;;45.67;25.13;;;;;;;-2.71;100.00;102868.97;5092790;28;20064;-63
2023/01/23 01:25:00;;;;;;;44.65;24.25;;;;;;;-2.65;100.00;102860.97;5092802;28;20055;-64
2023/01/23 01:27:27;;;;;;;45.90;24.13;;;;;;;-2.68;100.00;102863.66;5075236;28;20127;-64
2023/01/23 01:29:54;;;;;;;46.17;24.35;;;;;;;-2.54;100.00;102861.69;5093501;28;20063;-63
2023/01/23 01:32:21;;;;;;;47.78;23.75;;;;;;;-2.62;100.00;102877.56;5093042;28;20483;-63
2023/01/23 01:34:47;;;;;;;51.60;23.48;;;;;;;-2.69;100.00;102877.66;5092748;28;20054;-64
2023/01/23 01:37:13;;;;;;;46.60;24.40;;;;;;;-2.63;100.00;102888.97;5093180;28;20123;-64
2023/01/23 01:39:40;;;;;;;47.22;24.38;;;;;;;-2.65;100.00;102884.63;5093155;28;20131;-63
2023/01/23 01:42:06;;;;;;;53.95;25.52;;;;;;;-2.59;100.00;102889.78;5094291;28;20131;-64
2023/01/23 01:44:52;;;;;;;44.10;24.70;;;;;;;-2.60;100.00;102890.69;5092246;28;20046;-63
2023/01/23 01:47:18;;;;;;;48.20;24.25;;;;;;;-2.66;100.00;102885.50;5092898;28;20376;-64
2023/01/23 01:49:45;;;;;;;46.13;24.70;;;;;;;-2.64;100.00;102884.59;5092669;28;20047;-63
2023/01/23 01:52:14;;;;;;;47.75;24.30;;;;;;;-2.64;100.00;102894.25;5092886;28;20048;-63
2023/01/23 01:54:58;;;;;;;48.67;24.70;;;;;;;-2.63;100.00;102886.34;5093250;28;20066;-63
2023/01/23 01:57:40;;;;;;;49.50;25.23;;;;;;;-2.52;100.00;102890.56;5092867;28;20096;-66
2023/01/23 02:00:15;;;;;;;48.00;24.45;;;;;;;-2.58;100.00;102892.41;5092696;28;20044;-63
2023/01/23 02:02:45;;;;;;;52.42;24.80;;;;;;;-2.62;100.00;102892.47;5093011;28;20101;-63
2023/01/23 02:09:10;;;;;;;50.03;24.75;;;;;;;-2.63;100.00;102893.34;5090406;28;20051;-64
2023/01/23 02:11:36;;;;;;;47.53;24.20;;;;;;;-2.69;100.00;102890.81;5090862;28;20514;-63
2023/01/23 02:14:03;;;;;;;52.65;25.35;;;;;;;-2.66;100.00;102893.41;5090281;28;20044;-64
2023/01/23 02:16:38;;;;;;;49.90;24.00;;;;;;;-2.63;100.00;102903.88;5089891;28;20070;-63
2023/01/23 02:19:19;;;;;;;49.47;23.45;;;;;;;-2.71;100.00;102896.09;5090665;28;20547;-63
2023/01/23 02:21:51;;;;;;;51.22;26.42;;;;;;;-2.71;100.00;102888.22;5081751;28;20496;-64
2023/01/23 02:24:41;;;;;;;51.17;26.02;;;;;;;-2.66;100.00;102891.63;5090014;28;20044;-63
2023/01/23 02:27:08;;;;;;;52.22;25.88;;;;;;;-2.56;100.00;102895.00;5093455;28;20040;-63
2023/01/23 02:29:43;;;;;;;58.40;27.65;;;;;;;-2.59;100.00;102897.66;5075720;28;20147;-63
2023/01/23 02:32:10;;;;;;;53.28;26.48;;;;;;;-2.61;100.00;102900.34;5094749;28;20040;-63
2023/01/23 02:34:37;;;;;;;56.22;26.88;;;;;;;-2.64;100.00;102891.63;5094580;28;20046;-63
2023/01/23 02:37:06;;;;;;;49.22;25.38;;;;;;;-2.62;100.00;102887.19;5094703;28;20040;-64
2023/01/23 02:39:32;;;;;;;55.10;26.25;;;;;;;-2.61;100.00;102889.81;5094667;28;20076;-64
2023/01/23 02:42:00;;;;;;;49.95;25.38;;;;;;;-2.60;100.00;102896.81;5094047;28;20408;-64
2023/01/23 02:44:30;;;;;;;49.10;24.73;;;;;;;-2.68;100.00;102896.06;5095036;28;20051;-63
2023/01/23 02:47:01;;;;;;;49.75;24.27;;;;;;;-2.61;100.00;102904.72;5094528;28;20089;-63
2023/01/23 02:49:28;;;;;;;49.33;24.67;;;;;;;-2.58;100.00;102909.91;5094734;28;20109;-64
2023/01/23 02:51:55;;;;;;;53.35;25.70;;;;;;;-2.56;100.00;102910.78;5093980;28;20115;-64
2023/01/23 02:54:22;;;;;;;49.33;23.85;;;;;;;-2.56;100.00;102916.03;5094078;28;20152;-63
2023/01/23 02:56:50;;;;;;;46.30;24.15;;;;;;;-2.61;100.00;102915.25;5093876;28;20122;-64
2023/01/23 03:02:02;;;;;;;49.72;25.95;;;;;;;-2.53;100.00;102926.50;5093969;28;20044;-64
2023/01/23 03:04:29;;;;;;;53.53;25.90;;;;;;;-2.52;100.00;102930.84;5094159;28;20484;-64
2023/01/23 03:06:57;;;;;;;54.70;26.63;;;;;;;-2.55;100.00;102930.91;5095027;28;20044;-63
2023/01/23 03:09:24;;;;;;;54.33;25.90;;;;;;;-2.54;100.00;102932.66;5095960;28;20498;-63
2023/01/23 03:11:51;;;;;;;51.22;26.02;;;;;;;-2.56;100.00;102934.44;5099077;28;20111;-62
2023/01/23 03:14:20;;;;;;;57.08;26.27;;;;;;;-2.50;100.00;102929.09;5095230;28;20047;-62
2023/01/23 03:16:50;;;;;;;50.65;25.73;;;;;;;-2.54;100.00;102932.66;5084526;28;20135;-63
2023/01/23 03:19:18;;;;;;;56.00;26.55;;;;;;;-2.51;100.00;102931.72;5095369;28;20602;-63
2023/01/23 03:21:45;;;;;;;59.67;27.33;;;;;;;-2.55;100.00;102933.53;5093577;28;20066;-63
2023/01/23 03:24:13;;;;;;;57.95;26.67;;;;;;;-2.65;100.00;102937.16;5094418;28;20127;-63
2023/01/23 03:26:44;;;;;;;52.40;26.05;;;;;;;-2.60;100.00;102944.13;5095233;28;20078;-62
2023/01/23 03:32:01;;;;;;;54.30;25.90;;;;;;;-2.58;100.00;102946.69;5094375;28;19919;-64
2023/01/23 03:34:28;;;;;;;55.63;26.83;;;;;;;-2.52;100.00;102940.50;5095782;28;20046;-62
2023/01/23 03:36:55;;;;;;;57.97;27.13;;;;;;;-2.52;100.00;102949.25;5095351;28;20044;-63
2023/01/23 03:42:06;;;;;;;58.08;28.13;;;;;;;-2.49;100.00;102959.72;5094968;28;20146;-63
2023/01/23 03:44:33;;;;;;;56.35;27.92;;;;;;;-2.61;100.00;102954.66;5094836;28;20056;-62
2023/01/23 03:46:59;;;;;;;57.97;27.50;;;;;;;-2.56;100.00;102965.97;5095053;28;20415;-63
2023/01/23 03:49:26;;;;;;;53.90;28.73;;;;;;;-2.53;100.00;102960.66;5094815;28;20491;-63
2023/01/23 03:51:52;;;;;;;55.50;28.85;;;;;;;-2.45;100.00;102958.78;5094618;28;20462;-63
2023/01/23 03:54:19;;;;;;;57.47;27.23;;;;;;;-2.60;100.00;102959.88;5095341;28;20416;-62
2023/01/23 03:56:45;;;;;;;58.53;28.08;;;;;;;-2.58;100.00;102966.00;5094509;28;20048;-63
2023/01/23 03:59:12;;;;;;;54.25;26.92;;;;;;;-2.57;100.00;102958.97;5094576;28;20135;-63
2023/01/23 04:01:38;;;;;;;59.63;27.45;;;;;;;-2.58;100.00;102963.38;5094714;28;20412;-63
2023/01/23 04:04:05;;;;;;;47.85;25.23;;;;;;;-2.58;100.00;102968.63;5092227;28;20044;-63
2023/01/23 04:06:31;;;;;;;53.65;27.63;;;;;;;-2.59;100.00;102974.75;5092276;28;20040;-63
2023/01/23 04:08:58;;;;;;;52.25;26.45;;;;;;;-2.61;100.00;102980.94;5093450;28;20044;-63
2023/01/23 04:11:25;;;;;;;56.60;28.88;;;;;;;-2.53;100.00;102979.06;5092698;28;20047;-63
2023/01/23 04:13:53;;;;;;;59.80;27.35;;;;;;;-2.52;100.00;102978.16;5092396;28;20044;-62
2023/01/23 04:16:23;;;;;;;55.08;27.80;;;;;;;-2.47;100.00;102979.00;5091550;28;20085;-63
2023/01/23 04:18:51;;;;;;;52.33;25.80;;;;;;;-2.47;100.00;102978.13;5091696;28;20105;-63
2023/01/23 04:21:20;;;;;;;55.22;27.48;;;;;;;-2.44;100.00;102984.22;5091369;28;21602;-63
2023/01/23 04:23:47;;;;;;;49.80;27.02;;;;;;;-2.50;100.00;102981.66;5092150;28;20492;-63
2023/01/23 04:26:13;;;;;;;54.58;27.40;;;;;;;-2.53;100.00;102984.31;5092625;28;20048;-62
2023/01/23 04:28:40;;;;;;;54.05;27.27;;;;;;;-2.47;100.00;102986.88;5074100;28;20056;-62
2023/01/23 04:31:08;;;;;;;53.70;26.45;;;;;;;-2.51;100.00;102993.06;5091871;28;20495;-62
2023/01/23 04:33:35;;;;;;;55.42;28.00;;;;;;;-2.53;100.00;102992.22;5091442;28;20040;-62
2023/01/23 04:36:04;;;;;;;50.50;26.05;;;;;;;-2.53;100.00;102989.56;5090801;28;20054;-63
2023/01/23 04:38:31;;;;;;;54.55;27.27;;;;;;;-2.53;100.00;102997.47;5090854;28;20349;-63
2023/01/23 04:40:57;;;;;;;52.00;25.80;;;;;;;-2.64;100.00;102991.47;5091717;28;20079;-63
2023/01/23 04:43:24;;;;;;;51.60;26.38;;;;;;;-2.56;100.00;102994.88;5086565;28;20115;-63
2023/01/23 04:45:53;;;;;;;55.92;27.95;;;;;;;-2.50;100.00;103002.69;5090729;28;21137;-63
2023/01/23 04:48:19;;;;;;;59.90;28.92;;;;;;;-2.57;100.00;102995.75;5091138;28;20063;-63
2023/01/23 04:50:47;;;;;;;52.35;27.10;;;;;;;-2.48;100.00;102993.00;5090616;28;20044;-63
2023/01/23 04:53:14;;;;;;;55.85;29.05;;;;;;;-2.49;100.00;102993.03;5091390;28;20044;-64
2023/01/23 04:55:40;;;;;;;52.10;28.00;;;;;;;-2.51;100.00;103000.06;5090304;28;20131;-64
2023/01/23 04:58:10;;;;;;;51.65;26.83;;;;;;;-2.56;100.00;102997.50;5092028;28;20108;-63
2023/01/23 05:00:37;;;;;;;53.20;26.45;;;;;;;-2.63;100.00;102994.06;5090661;28;20119;-63
2023/01/23 05:03:03;;;;;;;52.03;26.75;;;;;;;-2.64;100.00;103004.63;5091586;28;20058;-64
2023/01/23 05:05:30;;;;;;;53.15;26.67;;;;;;;-2.59;100.00;102997.53;5091118;28;20051;-62
2023/01/23 05:07:57;;;;;;;50.25;27.00;;;;;;;-2.64;100.00;102996.75;5091886;28;20039;-64
2023/01/23 05:10:23;;;;;;;51.78;27.40;;;;;;;-2.55;100.00;102993.09;5090913;28;20051;-63
2023/01/23 05:12:50;;;;;;;56.50;28.27;;;;;;;-2.57;100.00;102993.13;5090210;28;20067;-63
2023/01/23 05:15:16;;;;;;;55.88;28.27;;;;;;;-2.59;100.00;102987.88;5092567;28;20051;-63
2023/01/23 05:17:43;;;;;;;50.50;27.33;;;;;;;-2.61;100.00;102983.56;5091725;28;20056;-63
2023/01/23 05:20:10;;;;;;;54.03;27.30;;;;;;;-2.58;100.00;102991.38;5092805;28;20044;-63
2023/01/23 05:22:37;;;;;;;50.78;27.02;;;;;;;-2.64;100.00;102999.38;5092124;28;20404;-63
2023/01/23 05:25:04;;;;;;;47.67;25.65;;;;;;;-2.67;100.00;103005.53;5091224;28;20559;-64
2023/01/23 05:27:30;;;;;;;55.70;27.55;;;;;;;-2.60;100.00;103003.69;5092172;28;20090;-63
2023/01/23 05:29:57;;;;;;;56.47;27.95;;;;;;;-2.59;100.00;103001.03;5090521;28;20507;-64
2023/01/23 05:32:24;;;;;;;52.13;27.40;;;;;;;-2.64;100.00;103004.63;5091035;28;20481;-63
2023/01/23 05:34:50;;;;;;;55.47;28.08;;;;;;;-2.68;100.00;103013.44;5090734;28;20165;-64
2023/01/23 05:37:19;;;;;;;53.13;27.85;;;;;;;-2.66;100.00;103003.75;5091053;28;20067;-62
2023/01/23 05:39:45;;;;;;;52.97;27.63;;;;;;;-2.52;100.00;102998.31;5091386;28;20052;-63
2023/01/23 05:42:12;;;;;;;54.38;28.67;;;;;;;-2.54;100.00;103000.13;5092251;28;20126;-63
2023/01/23 05:44:39;;;;;;;54.17;28.77;;;;;;;-2.64;100.00;103000.22;5090053;28;20050;-63
2023/01/23 05:47:05;;;;;;;59.20;28.10;;;;;;;-2.59;100.00;103002.78;5088857;28;20054;-64
2023/01/23 05:49:32;;;;;;;56.85;29.35;;;;;;;-2.58;100.00;103002.78;5091417;28;20071;-64
2023/01/23 05:51:58;;;;;;;57.08;29.15;;;;;;;-2.59;100.00;103003.66;5091771;28;20127;-63
2023/01/23 05:54:25;;;;;;;57.78;28.30;;;;;;;-2.58;100.00;103008.03;5090853;28;20058;-62
2023/01/23 05:56:51;;;;;;;57.47;29.85;;;;;;;-2.64;100.00;103012.50;5089797;28;20115;-64
2023/01/23 05:59:18;;;;;;;52.17;27.13;;;;;;;-2.59;100.00;103013.31;5082990;28;20047;-62
2023/01/23 06:01:44;;;;;;;59.47;30.13;;;;;;;-2.58;100.00;103021.19;5092328;28;20500;-63
2023/01/23 06:04:14;;;;;;;54.45;28.48;;;;;;;-2.63;100.00;103024.75;5090600;28;20067;-62
2023/01/23 06:06:42;;;;;;;57.40;28.48;;;;;;;-2.63;100.00;103024.75;5091985;28;20054;-63
2023/01/23 06:09:09;;;;;;;62.75;29.45;;;;;;;-2.65;100.00;103037.00;5090817;28;20119;-63
2023/01/23 06:11:36;;;;;;;53.63;28.70;;;;;;;-2.72;100.00;103036.25;5090713;28;20115;-64
2023/01/23 06:14:02;;;;;;;54.78;28.63;;;;;;;-2.64;100.00;103038.78;5089945;28;20152;-65
2023/01/23 06:16:29;;;;;;;58.83;28.65;;;;;;;-2.71;100.00;103050.25;5090150;28;20040;-64
2023/01/23 06:18:55;;;;;;;57.78;29.20;;;;;;;-2.64;100.00;103046.66;5090432;28;20977;-65
2023/01/23 06:21:22;;;;;;;59.63;30.55;;;;;;;-2.70;100.00;103044.09;5089906;28;20055;-65
2023/01/23 06:23:48;;;;;;;62.83;30.27;;;;;;;-2.68;100.00;103051.09;5090185;28;20052;-62
2023/01/23 06:26:15;;;;;;;57.70;29.35;;;;;;;-2.68;100.00;103051.09;5090367;28;20432;-63
2023/01/23 06:28:41;;;;;;;59.05;29.95;;;;;;;-2.67;100.00;103050.19;5089746;28;20048;-65
2023/01/23 06:31:09;;;;;;;54.35;28.67;;;;;;;-2.62;100.00;103042.25;5089558;28;20044;-62
2023/01/23 06:33:36;;;;;;;62.55;29.35;;;;;;;-2.57;100.00;103053.59;5090461;28;20506;-64
2023/01/23 06:36:05;;;;;;;54.97;29.00;;;;;;;-2.59;100.00;103045.69;5089983;28;20123;-63
2023/01/23 06:38:32;;;;;;;61.38;31.02;;;;;;;-2.62;100.00;103045.72;5090025;28;20460;-64
2023/01/23 06:40:59;;;;;;;64.35;29.30;;;;;;;-2.55;100.00;103049.16;5090218;28;20044;-64
2023/01/23 06:43:26;;;;;;;60.22;30.10;;;;;;;-2.61;100.00;103054.50;5089997;28;20115;-63
2023/01/23 06:45:52;;;;;;;60.70;31.00;;;;;;;-2.63;100.00;103054.50;5089155;28;20495;-63
2023/01/23 06:48:19;;;;;;;58.03;30.23;;;;;;;-2.62;100.00;103056.25;5089061;28;20044;-63
2023/01/23 06:50:46;;;;;;;58.00;30.02;;;;;;;-2.64;100.00;103060.66;5089633;28;20051;-62
2023/01/23 06:53:14;;;;;;;53.25;29.23;;;;;;;-2.62;100.00;103068.53;5089845;28;20126;-64
2023/01/23 06:55:41;;;;;;;66.93;30.08;;;;;;;-2.53;100.00;103070.19;5089803;28;20467;-64
2023/01/23 06:58:07;;;;;;;57.10;30.77;;;;;;;-2.59;100.00;103074.59;5089748;28;20134;-63
2023/01/23 07:00:34;;;;;;;58.08;30.58;;;;;;;-2.56;100.00;103071.09;5090809;28;20051;-65
2023/01/23 07:03:04;;;;;;;57.47;30.13;;;;;;;-2.54;100.00;103071.09;5089585;28;20056;-63
2023/01/23 07:05:34;;;;;;;57.38;28.10;;;;;;;-2.53;100.00;103073.69;5089723;28;20119;-63
2023/01/23 07:08:01;;;;;;;54.20;29.05;;;;;;;-2.50;100.00;103073.66;5089257;28;20044;-64
2023/01/23 07:10:31;;;;;;;54.80;28.35;;;;;;;-2.60;100.00;103083.38;5089752;28;20039;-63
2023/01/23 07:12:57;;;;;;;54.50;28.98;;;;;;;-2.66;100.00;103072.94;5092694;28;20052;-63
2023/01/23 07:15:24;;;;;;;55.83;27.38;;;;;;;-2.70;100.00;103075.63;5094474;28;20131;-63
2023/01/23 07:17:50;;;;;;;55.80;27.13;;;;;;;-2.67;100.00;103080.84;5094549;28;20055;-63
2023/01/23 07:20:17;;;;;;;51.35;26.95;;;;;;;-2.64;100.00;103086.06;5096072;28;20066;-63
2023/01/23 07:22:44;;;;;;;51.20;27.70;;;;;;;-2.61;100.00;103083.41;5095197;28;20065;-63
2023/01/23 07:25:10;;;;;;;50.15;26.52;;;;;;;-2.68;100.00;103093.13;5095235;28;20406;-63
2023/01/23 07:27:37;;;;;;;50.05;26.83;;;;;;;-2.61;100.00;103099.19;5076907;28;20431;-67
2023/01/23 07:30:04;;;;;;;50.55;27.10;;;;;;;-2.61;100.00;103110.56;5077175;28;20444;-65
2023/01/23 07:32:31;;;;;;;53.80;27.95;;;;;;;-2.61;100.00;103104.44;5094677;28;20044;-66
2023/01/23 07:34:57;;;;;;;53.72;28.35;;;;;;;-2.56;100.00;103102.63;5095358;28;20082;-66
2023/01/23 07:37:24;;;;;;;49.55;27.60;;;;;;;-2.47;100.00;103107.78;5095208;28;20048;-66
2023/01/23 07:39:51;;;;;;;56.38;28.05;;;;;;;-2.51;100.00;103097.31;5094963;28;20059;-66
2023/01/23 07:42:20;;;;;;;52.90;26.48;;;;;;;-2.55;100.00;103090.34;5095046;28;20050;-66
2023/01/23 07:44:46;;;;;;;53.42;27.52;;;;;;;-2.60;100.00;103087.78;5095009;28;20126;-66
2023/01/23 07:47:13;;;;;;;51.25;27.55;;;;;;;-2.50;100.00;103092.03;5094362;28;20040;-66
2023/01/23 07:49:39;;;;;;;53.08;28.52;;;;;;;-2.55;100.00;103099.09;5094139;28;20476;-66
2023/01/23 07:52:06;;;;;;;52.47;28.42;;;;;;;-2.56;100.00;103094.72;5095270;28;20044;-65
2023/01/23 07:54:32;;;;;;;52.25;28.88;;;;;;;-2.57;100.00;103096.50;5094272;28;20062;-66
2023/01/23 07:56:58;;;;;;;53.00;27.63;;;;;;;-2.59;100.00;103111.41;5093410;28;20452;-66
2023/01/23 07:59:25;;;;;;;50.20;27.60;;;;;;;-2.57;100.00;103101.75;5093058;28;20056;-66
2023/01/23 08:01:52;;;;;;;54.42;28.10;;;;;;;-2.59;100.00;103113.16;5093689;28;20127;-66
2023/01/23 08:04:19;;;;;;;52.22;28.17;;;;;;;-2.53;100.00;103099.09;5094060;28;20084;-66
2023/01/23 08:06:45;;;;;;;53.53;30.30;;;;;;;-2.46;100.00;103099.00;5094286;28;20052;-66
2023/01/23 08:09:12;;;;;;;58.20;30.77;;;;;;;-2.38;100.00;103099.78;5094765;28;20127;-66
2023/01/23 08:11:38;;;;;;;51.35;28.88;;;;;;;-2.43;100.00;103095.47;5095188;28;20040;-66
2023/01/23 08:14:05;;;;;;;55.92;29.35;;;;;;;-2.46;100.00;103093.75;5094313;28;20064;-66
2023/01/23 08:16:31;;;;;;;57.20;29.63;;;;;;;-2.37;100.00;103098.91;5094082;28;20072;-65
2023/01/23 08:18:58;;;;;;;58.72;30.42;;;;;;;-2.39;100.00;103105.94;5094632;28;20044;-65
2023/01/23 08:21:25;;;;;;;55.58;28.80;;;;;;;-2.31;100.00;103108.47;5094045;28;20068;-65
2023/01/23 08:23:51;;;;;;;54.83;29.20;;;;;;;-2.30;100.00;103115.47;5092504;28;20048;-65
2023/01/23 08:26:18;;;;;;;55.67;29.38;;;;;;;-2.51;100.00;103111.34;5093220;28;20139;-65
2023/01/23 08:28:44;;;;;;;53.55;28.98;;;;;;;-2.52;100.00;103129.75;5094207;28;20491;-63
2023/01/23 08:31:12;;;;;;;56.17;29.80;;;;;;;-2.52;100.00;103133.22;5094495;28;20048;-65
2023/01/23 08:33:38;;;;;;;58.25;29.92;;;;;;;-2.43;100.00;103127.88;5093477;28;20055;-64
2023/01/23 08:36:07;;;;;;;53.28;28.83;;;;;;;-2.43;100.00;103129.66;5093893;28;20479;-64
2023/01/23 08:38:36;;;;;;;54.88;29.40;;;;;;;-2.55;100.00;103135.03;5076152;28;20044;-65
2023/01/23 08:41:04;;;;;;;52.97;28.73;;;;;;;-2.62;100.00;103131.59;5093119;28;20135;-66
2023/01/23 08:43:31;;;;;;;61.85;31.90;;;;;;;-2.51;100.00;103142.88;5093243;28;20468;-63
2023/01/23 08:45:58;;;;;;;58.20;30.27;;;;;;;-2.54;100.00;103147.31;5093425;28;20051;-66
2023/01/23 08:48:26;;;;;;;52.80;28.88;;;;;;;-2.56;100.00;103149.94;5093437;28;20051;-64
2023/01/23 08:51:01;;;;;;;55.22;29.63;;;;;;;-2.56;100.00;103149.94;5093700;28;20475;-66
2023/01/23 08:53:29;;;;;;;61.25;30.98;;;;;;;-2.50;100.00;103165.63;5093258;28;20127;-65
2023/01/23 08:56:04;;;;;;;58.80;30.90;;;;;;;-2.42;100.00;103166.41;5093013;28;20058;-65
2023/01/23 08:58:31;;;;;;;56.25;30.40;;;;;;;-2.47;100.00;103170.00;5093782;28;20127;-65
2023/01/23 09:00:58;;;;;;;59.00;30.05;;;;;;;-2.46;100.00;103177.84;5093617;28;20074;-65
2023/01/23 09:03:25;;;;;;;54.28;28.25;;;;;;;-2.47;100.00;103176.13;5092444;28;20051;-65
2023/01/23 09:05:52;;;;;;;55.10;29.33;;;;;;;-2.49;100.00;103175.25;5093312;28;20050;-65
2023/01/23 09:08:18;;;;;;;60.08;30.33;;;;;;;-2.46;100.00;103179.63;5093425;28;20047;-65
2023/01/23 09:10:45;;;;;;;54.38;29.00;;;;;;;-2.34;100.00;103187.38;5093561;28;20081;-65
2023/01/23 09:13:11;;;;;;;56.33;29.98;;;;;;;-2.37;100.00;103195.31;5094481;28;20399;-65
2023/01/23 09:15:38;;;;;;;55.90;30.90;;;;;;;-2.33;100.00;103187.38;5091709;28;20067;-65
2023/01/23 09:18:05;;;;;;;61.05;30.75;;;;;;;-2.35;100.00;103196.16;5091308;28;20050;-65
2023/01/23 09:20:32;;;;;;;58.92;29.73;;;;;;;-2.51;100.00;103200.72;5091342;28;20048;-65
2023/01/23 09:22:59;;;;;;;58.88;30.23;;;;;;;-2.47;100.00;103207.66;5091063;28;20419;-65
2023/01/23 09:25:25;;;;;;;58.35;30.00;;;;;;;-2.51;100.00;103211.22;5091298;28;20050;-65
2023/01/23 09:27:52;;;;;;;57.00;30.58;;;;;;;-2.53;100.00;103212.97;5090850;28;20420;-64
2023/01/23 09:30:18;;;;;;;57.53;29.38;;;;;;;-2.59;100.00;103208.63;5090666;28;20040;-65
2023/01/23 09:32:45;;;;;;;58.40;29.23;;;;;;;-2.57;100.00;103211.28;5087731;28;20106;-64
2023/01/23 09:35:12;;;;;;;56.00;30.95;;;;;;;-2.49;100.00;103209.44;5091233;28;20040;-64
2023/01/23 09:40:27;;;;;;;53.25;29.00;;;;;;;-2.50;100.00;103217.34;5086459;28;20044;-65
2023/01/23 09:42:56;;;;;;;61.95;31.70;;;;;;;-2.52;100.00;103221.72;5089635;28;20059;-66
2023/01/23 09:45:26;;;;;;;55.45;30.27;;;;;;;-2.53;100.00;103210.34;5089944;28;20044;-66
2023/01/23 09:48:24;;;;;;;62.80;30.02;;;;;;;-2.49;100.00;103219.06;5090164;28;20551;-66
2023/01/23 09:51:00;;;;;;;56.72;29.33;;;;;;;-2.47;100.00;103212.94;5072889;28;20078;-65
2023/01/23 09:53:36;;;;;;;54.13;28.52;;;;;;;-2.43;100.00;103211.13;5090648;28;20130;-67
2023/01/23 09:56:16;;;;;;;54.47;28.95;;;;;;;-2.31;100.00;103216.25;5090471;28;20087;-64
2023/01/23 09:58:51;;;;;;;58.40;29.17;;;;;;;-2.29;100.00;103217.13;5090096;28;20052;-65
2023/01/23 10:01:18;;;;;;;53.85;28.25;;;;;;;-2.22;100.00;103223.19;5090256;28;20043;-66
2023/01/23 10:03:45;;;;;;;53.35;28.70;;;;;;;-2.20;100.00;103224.94;5089889;28;20067;-65
2023/01/23 10:06:19;;;;;;;51.50;27.90;;;;;;;-2.19;100.00;103224.03;5089995;28;20073;-65
2023/01/23 10:09:19;;;;;;;55.22;29.17;;;;;;;-2.16;100.00;103228.41;5089216;28;20047;-65
2023/01/23 10:11:54;;;;;;;50.97;27.55;;;;;;;-2.25;100.00;103228.47;5090236;28;20044;-64
2023/01/23 10:14:39;;;;;;;53.67;28.80;;;;;;;-2.25;100.00;103225.84;5092837;28;20040;-64
2023/01/23 10:17:29;;;;;;;55.40;27.95;;;;;;;-2.23;100.00;103231.97;5073528;28;20048;-64
2023/01/23 10:20:12;;;;;;;50.78;27.88;;;;;;;-2.22;100.00;103228.44;5091686;28;20048;-64
2023/01/23 10:23:06;;;;;;;53.17;28.30;;;;;;;-2.25;100.00;103225.84;5090397;28;20054;-64
2023/01/23 10:25:37;;;;;;;51.83;29.38;;;;;;;-2.20;100.00;103226.66;5091198;28;20043;-63
2023/01/23 10:28:38;;;;;;;53.13;27.52;;;;;;;-2.23;100.00;103226.72;5091785;28;20052;-65
2023/01/23 10:31:27;;;;;;;58.00;29.95;;;;;;;-2.14;100.00;103232.72;5091119;28;20048;-65
2023/01/23 10:34:09;;;;;;;56.88;28.45;;;;;;;-2.25;100.00;103233.75;5091175;28;20502;-64
2023/01/23 10:36:38;;;;;;;;;;;;;;;-2.28;100.00;103239.03;5091074;28;20052;-64
2023/01/23 10:39:25;;;;;;;58.33;28.42;;;;;;;-2.31;100.00;103228.53;5091540;28;20299;-65
2023/01/23 10:41:51;;;;;;;54.83;27.80;;;;;;;-2.35;100.00;103238.22;5092059;28;20052;-64
2023/01/23 10:44:27;;;;;;;54.53;28.90;;;;;;;-2.27;100.00;103236.38;5092376;28;20537;-64
2023/01/23 10:46:59;;;;;;;53.72;29.13;;;;;;;-2.19;100.00;103231.91;5092243;28;20067;-65
2023/01/23 10:49:29;;;;;;;49.42;28.35;;;;;;;-2.10;100.00;103238.81;5094531;28;20127;-65
2023/01/23 10:51:56;;;;;;;54.60;29.90;;;;;;;-2.03;100.00;103234.38;5095334;28;20040;-65
2023/01/23 10:54:28;;;;;;;53.55;28.90;;;;;;;-1.99;100.00;103231.72;5095892;28;20040;-65
2023/01/23 10:56:58;;;;;;;57.50;30.20;;;;;;;-2.03;100.00;103229.97;5094883;28;20170;-65
2023/01/23 11:00:03;;;;;;;57.75;28.88;;;;;;;-1.98;100.00;103232.56;5095943;28;20055;-64
2023/01/23 11:02:32;;;;;;;54.88;29.42;;;;;;;-1.99;100.00;103231.72;5094515;28;20044;-63
2023/01/23 11:05:00;;;;;;;56.55;28.90;;;;;;;-2.01;100.00;103230.84;5095780;28;20047;-65
2023/01/23 11:07:35;;;;;;;60.75;30.17;;;;;;;-2.16;100.00;103228.41;5096197;28;20134;-63
2023/01/23 11:10:11;;;;;;;54.90;29.65;;;;;;;-2.21;100.00;103231.06;5095405;28;20058;-64
2023/01/23 11:12:53;;;;;;;50.67;28.42;;;;;;;-2.16;100.00;103233.66;5095664;28;20051;-64
2023/01/23 11:15:32;;;;;;;52.50;28.45;;;;;;;-2.04;100.00;103230.00;5093683;28;20465;-64
2023/01/23 11:18:00;;;;;;;54.38;30.15;;;;;;;-2.04;100.00;103224.75;5094888;28;20094;-64
2023/01/23 11:20:39;;;;;;;53.67;29.40;;;;;;;-2.01;100.00;103229.97;5095008;28;20074;-65
2023/01/23 11:23:12;;;;;;;56.55;29.60;;;;;;;-1.92;100.00;103217.59;5088174;28;20064;-63
2023/01/23 11:25:44;;;;;;;49.22;28.00;;;;;;;-1.90;100.00;103213.16;5095060;28;20048;-64